sensor_id;sensor_type;location;lat;lon;timestamp;temperature;humidity
9389;DHT22;4734;52.778;6.798;2023-05-15T00:00:34;15.00;99.90
9389;DHT22;4734;52.778;6.798;2023-05-15T00:03:21;15.00;99.90
9389;DHT22;4734;52.778;6.798;2023-05-15T00:06:08;14.90;99.90
9389;DHT22;4734;52.778;6.798;2023-05-15T00:08:53;14.90;99.90
9389;DHT22;4734;52.778;6.798;2023-05-15T00:11:39;14.90;99.90
9389;DHT22;4734;52.778;6.798;2023-05-15T00:14:24;14.80;99.90
9389;DHT22;4734;52.778;6.798;2023-05-15T00:17:10;14.80;99.90
9389;DHT22;4734;52.778;6.798;2023-05-15T00:19:56;14.80;99.90
9389;DHT22;4734;52.778;6.798;2023-05-15T00:22:44;14.80;99.90
9389;DHT22;4734;52.778;6.798;2023-05-15T00:25:29;14.70;99.90
9389;DHT22;4734;52.778;6.798;2023-05-15T00:28:15;14.70;99.90
9389;DHT22;4734;52.778;6.798;2023-05-15T00:31:00;14.70;99.90
9389;DHT22;4734;52.778;6.798;2023-05-15T00:33:46;14.70;99.90
9389;DHT22;4734;52.778;6.798;2023-05-15T00:36:32;14.70;99.90
9389;DHT22;4734;52.778;6.798;2023-05-15T00:39:19;14.70;99.90
9389;DHT22;4734;52.778;6.798;2023-05-15T00:42:06;14.60;99.90
9389;DHT22;4734;52.778;6.798;2023-05-15T00:44:52;14.60;99.90
9389;DHT22;4734;52.778;6.798;2023-05-15T00:47:39;14.60;99.90
9389;DHT22;4734;52.778;6.798;2023-05-15T00:50:25;14.60;99.90
9389;DHT22;4734;52.778;6.798;2023-05-15T00:53:11;14.60;99.90
9389;DHT22;4734;52.778;6.798;2023-05-15T00:55:58;14.60;99.90
9389;DHT22;4734;52.778;6.798;2023-05-15T00:58:45;14.60;99.90
9389;DHT22;4734;52.778;6.798;2023-05-15T01:01:32;14.50;99.90
9389;DHT22;4734;52.778;6.798;2023-05-15T01:04:19;14.60;99.90
9389;DHT22;4734;52.778;6.798;2023-05-15T01:07:04;14.50;99.90
9389;DHT22;4734;52.778;6.798;2023-05-15T01:09:51;14.50;99.90
9389;DHT22;4734;52.778;6.798;2023-05-15T01:12:40;14.50;99.90
9389;DHT22;4734;52.778;6.798;2023-05-15T01:15:27;14.50;99.90
9389;DHT22;4734;52.778;6.798;2023-05-15T01:18:13;14.50;99.90
9389;DHT22;4734;52.778;6.798;2023-05-15T01:21:18;14.40;99.90
9389;DHT22;4734;52.778;6.798;2023-05-15T01:24:20;14.40;99.90
9389;DHT22;4734;52.778;6.798;2023-05-15T01:27:19;14.50;99.90
9389;DHT22;4734;52.778;6.798;2023-05-15T01:30:17;14.50;99.90
9389;DHT22;4734;52.778;6.798;2023-05-15T01:33:07;14.40;99.90
9389;DHT22;4734;52.778;6.798;2023-05-15T01:36:06;14.50;99.90
9389;DHT22;4734;52.778;6.798;2023-05-15T01:38:53;14.40;99.90
9389;DHT22;4734;52.778;6.798;2023-05-15T01:41:44;14.40;99.90
9389;DHT22;4734;52.778;6.798;2023-05-15T01:44:34;14.40;99.90
9389;DHT22;4734;52.778;6.798;2023-05-15T01:47:36;14.40;99.90
9389;DHT22;4734;52.778;6.798;2023-05-15T01:50:22;14.40;99.90
9389;DHT22;4734;52.778;6.798;2023-05-15T01:53:08;14.40;99.90
9389;DHT22;4734;52.778;6.798;2023-05-15T01:55:55;14.30;99.90
9389;DHT22;4734;52.778;6.798;2023-05-15T01:58:41;14.30;99.90
9389;DHT22;4734;52.778;6.798;2023-05-15T02:01:31;14.30;99.90
9389;DHT22;4734;52.778;6.798;2023-05-15T02:04:18;14.30;99.90
9389;DHT22;4734;52.778;6.798;2023-05-15T02:07:05;14.30;99.90
9389;DHT22;4734;52.778;6.798;2023-05-15T02:09:51;14.20;99.90
9389;DHT22;4734;52.778;6.798;2023-05-15T02:12:37;14.20;99.90
9389;DHT22;4734;52.778;6.798;2023-05-15T02:15:24;14.20;99.90
9389;DHT22;4734;52.778;6.798;2023-05-15T02:18:11;14.20;99.90
9389;DHT22;4734;52.778;6.798;2023-05-15T02:20:57;14.10;99.90
9389;DHT22;4734;52.778;6.798;2023-05-15T02:23:44;14.10;99.90
9389;DHT22;4734;52.778;6.798;2023-05-15T02:26:34;14.10;99.90
9389;DHT22;4734;52.778;6.798;2023-05-15T02:29:29;14.10;99.90
9389;DHT22;4734;52.778;6.798;2023-05-15T02:32:21;14.10;99.90
9389;DHT22;4734;52.778;6.798;2023-05-15T02:35:18;14.10;99.90
9389;DHT22;4734;52.778;6.798;2023-05-15T02:38:08;14.10;99.90
9389;DHT22;4734;52.778;6.798;2023-05-15T02:40:57;14.10;99.90
9389;DHT22;4734;52.778;6.798;2023-05-15T02:43:43;14.10;99.90
9389;DHT22;4734;52.778;6.798;2023-05-15T02:46:30;14.10;99.90
9389;DHT22;4734;52.778;6.798;2023-05-15T02:49:16;14.00;99.90
9389;DHT22;4734;52.778;6.798;2023-05-15T02:52:03;14.10;99.90
9389;DHT22;4734;52.778;6.798;2023-05-15T02:54:49;14.00;99.90
9389;DHT22;4734;52.778;6.798;2023-05-15T02:57:35;14.00;99.90
9389;DHT22;4734;52.778;6.798;2023-05-15T03:00:20;14.00;99.90
9389;DHT22;4734;52.778;6.798;2023-05-15T03:03:06;14.00;99.90
9389;DHT22;4734;52.778;6.798;2023-05-15T03:05:51;14.00;99.90
9389;DHT22;4734;52.778;6.798;2023-05-15T03:08:38;14.00;99.90
9389;DHT22;4734;52.778;6.798;2023-05-15T03:11:24;14.00;99.90
9389;DHT22;4734;52.778;6.798;2023-05-15T03:14:09;14.00;99.90
9389;DHT22;4734;52.778;6.798;2023-05-15T03:16:55;13.90;99.90
9389;DHT22;4734;52.778;6.798;2023-05-15T03:19:40;13.90;99.90
9389;DHT22;4734;52.778;6.798;2023-05-15T03:22:26;13.90;99.90
9389;DHT22;4734;52.778;6.798;2023-05-15T03:25:13;13.90;99.90
9389;DHT22;4734;52.778;6.798;2023-05-15T03:27:59;13.90;99.90
9389;DHT22;4734;52.778;6.798;2023-05-15T03:30:44;13.90;99.90
9389;DHT22;4734;52.778;6.798;2023-05-15T03:33:31;13.90;99.90
9389;DHT22;4734;52.778;6.798;2023-05-15T03:36:16;13.90;99.90
9389;DHT22;4734;52.778;6.798;2023-05-15T03:39:02;13.80;99.90
9389;DHT22;4734;52.778;6.798;2023-05-15T03:41:48;13.80;99.90
9389;DHT22;4734;52.778;6.798;2023-05-15T03:44:34;13.80;99.90
9389;DHT22;4734;52.778;6.798;2023-05-15T03:47:20;13.80;99.90
9389;DHT22;4734;52.778;6.798;2023-05-15T03:50:06;13.80;99.90
9389;DHT22;4734;52.778;6.798;2023-05-15T03:52:51;13.80;99.90
9389;DHT22;4734;52.778;6.798;2023-05-15T03:55:37;13.80;99.90
9389;DHT22;4734;52.778;6.798;2023-05-15T03:58:24;13.80;99.90
9389;DHT22;4734;52.778;6.798;2023-05-15T04:01:09;13.80;99.90
9389;DHT22;4734;52.778;6.798;2023-05-15T04:03:54;13.70;99.90
9389;DHT22;4734;52.778;6.798;2023-05-15T04:06:40;13.70;99.90
9389;DHT22;4734;52.778;6.798;2023-05-15T04:09:26;13.70;99.90
9389;DHT22;4734;52.778;6.798;2023-05-15T04:12:11;13.70;99.90
9389;DHT22;4734;52.778;6.798;2023-05-15T04:15:12;13.70;99.90
9389;DHT22;4734;52.778;6.798;2023-05-15T04:17:58;13.70;99.90
9389;DHT22;4734;52.778;6.798;2023-05-15T04:20:44;13.70;99.90
9389;DHT22;4734;52.778;6.798;2023-05-15T04:23:29;13.70;99.90
9389;DHT22;4734;52.778;6.798;2023-05-15T04:26:15;13.70;99.90
9389;DHT22;4734;52.778;6.798;2023-05-15T04:29:00;13.70;99.90
9389;DHT22;4734;52.778;6.798;2023-05-15T04:31:47;13.70;99.90
9389;DHT22;4734;52.778;6.798;2023-05-15T04:34:33;13.60;99.90
9389;DHT22;4734;52.778;6.798;2023-05-15T04:37:19;13.60;99.90
9389;DHT22;4734;52.778;6.798;2023-05-15T04:40:05;13.60;99.90
9389;DHT22;4734;52.778;6.798;2023-05-15T04:42:51;13.60;99.90
9389;DHT22;4734;52.778;6.798;2023-05-15T04:45:36;13.60;99.90
9389;DHT22;4734;52.778;6.798;2023-05-15T04:48:23;13.60;99.90
9389;DHT22;4734;52.778;6.798;2023-05-15T04:51:09;13.60;99.90
9389;DHT22;4734;52.778;6.798;2023-05-15T04:53:55;13.60;99.90
9389;DHT22;4734;52.778;6.798;2023-05-15T04:56:40;13.60;99.90
9389;DHT22;4734;52.778;6.798;2023-05-15T04:59:26;13.60;99.90
9389;DHT22;4734;52.778;6.798;2023-05-15T05:02:11;13.60;99.90
9389;DHT22;4734;52.778;6.798;2023-05-15T05:04:58;13.60;99.90
9389;DHT22;4734;52.778;6.798;2023-05-15T05:07:44;13.60;99.90
9389;DHT22;4734;52.778;6.798;2023-05-15T05:10:29;13.60;99.90
9389;DHT22;4734;52.778;6.798;2023-05-15T05:13:15;13.60;99.90
9389;DHT22;4734;52.778;6.798;2023-05-15T05:16:00;13.50;99.90
9389;DHT22;4734;52.778;6.798;2023-05-15T05:18:46;13.50;99.90
9389;DHT22;4734;52.778;6.798;2023-05-15T05:21:33;13.60;99.90
9389;DHT22;4734;52.778;6.798;2023-05-15T05:24:18;13.60;99.90
9389;DHT22;4734;52.778;6.798;2023-05-15T05:27:04;13.50;99.90
9389;DHT22;4734;52.778;6.798;2023-05-15T05:29:49;13.50;99.90
9389;DHT22;4734;52.778;6.798;2023-05-15T05:32:36;13.50;99.90
9389;DHT22;4734;52.778;6.798;2023-05-15T05:35:22;13.50;99.90
9389;DHT22;4734;52.778;6.798;2023-05-15T05:38:09;13.50;99.90
9389;DHT22;4734;52.778;6.798;2023-05-15T05:40:54;13.50;99.90
9389;DHT22;4734;52.778;6.798;2023-05-15T05:43:39;13.50;99.90
9389;DHT22;4734;52.778;6.798;2023-05-15T05:46:25;13.60;99.90
9389;DHT22;4734;52.778;6.798;2023-05-15T05:49:11;13.50;99.90
9389;DHT22;4734;52.778;6.798;2023-05-15T05:52:04;13.50;99.90
9389;DHT22;4734;52.778;6.798;2023-05-15T05:54:51;13.50;99.90
9389;DHT22;4734;52.778;6.798;2023-05-15T05:57:37;13.60;99.90
9389;DHT22;4734;52.778;6.798;2023-05-15T06:00:23;13.60;99.90
9389;DHT22;4734;52.778;6.798;2023-05-15T06:03:09;13.60;99.90
9389;DHT22;4734;52.778;6.798;2023-05-15T06:05:54;13.60;99.90
9389;DHT22;4734;52.778;6.798;2023-05-15T06:08:40;13.60;99.90
9389;DHT22;4734;52.778;6.798;2023-05-15T06:11:27;13.60;99.90
9389;DHT22;4734;52.778;6.798;2023-05-15T06:14:12;13.60;99.90
9389;DHT22;4734;52.778;6.798;2023-05-15T06:16:58;13.60;99.90
9389;DHT22;4734;52.778;6.798;2023-05-15T06:19:44;13.60;99.90
9389;DHT22;4734;52.778;6.798;2023-05-15T06:22:29;13.60;99.90
9389;DHT22;4734;52.778;6.798;2023-05-15T06:25:16;13.70;99.90
9389;DHT22;4734;52.778;6.798;2023-05-15T06:28:03;13.70;99.90
9389;DHT22;4734;52.778;6.798;2023-05-15T06:30:49;13.70;99.90
9389;DHT22;4734;52.778;6.798;2023-05-15T06:33:34;13.70;99.90
9389;DHT22;4734;52.778;6.798;2023-05-15T06:36:20;13.70;99.90
9389;DHT22;4734;52.778;6.798;2023-05-15T06:39:05;13.70;99.90
9389;DHT22;4734;52.778;6.798;2023-05-15T06:41:53;13.70;99.90
9389;DHT22;4734;52.778;6.798;2023-05-15T06:44:43;13.70;99.90
9389;DHT22;4734;52.778;6.798;2023-05-15T06:47:30;13.70;99.90
9389;DHT22;4734;52.778;6.798;2023-05-15T06:50:16;13.70;99.90
9389;DHT22;4734;52.778;6.798;2023-05-15T06:53:02;13.80;99.90
9389;DHT22;4734;52.778;6.798;2023-05-15T06:55:47;13.80;99.90
9389;DHT22;4734;52.778;6.798;2023-05-15T06:58:33;13.80;99.90
9389;DHT22;4734;52.778;6.798;2023-05-15T07:01:20;13.80;99.90
9389;DHT22;4734;52.778;6.798;2023-05-15T07:04:05;13.90;99.90
9389;DHT22;4734;52.778;6.798;2023-05-15T07:06:51;13.90;99.90
9389;DHT22;4734;52.778;6.798;2023-05-15T07:09:36;14.00;99.90
9389;DHT22;4734;52.778;6.798;2023-05-15T07:12:22;14.00;99.90
9389;DHT22;4734;52.778;6.798;2023-05-15T07:15:08;14.00;99.90
9389;DHT22;4734;52.778;6.798;2023-05-15T07:17:55;14.10;99.90
9389;DHT22;4734;52.778;6.798;2023-05-15T07:20:41;14.10;99.90
9389;DHT22;4734;52.778;6.798;2023-05-15T07:23:26;14.10;99.90
9389;DHT22;4734;52.778;6.798;2023-05-15T07:26:12;14.20;99.90
9389;DHT22;4734;52.778;6.798;2023-05-15T07:28:58;14.30;99.90
9389;DHT22;4734;52.778;6.798;2023-05-15T07:31:43;14.30;99.90
9389;DHT22;4734;52.778;6.798;2023-05-15T07:34:30;14.40;99.90
9389;DHT22;4734;52.778;6.798;2023-05-15T07:37:16;14.50;99.90
9389;DHT22;4734;52.778;6.798;2023-05-15T07:40:01;14.60;99.90
9389;DHT22;4734;52.778;6.798;2023-05-15T07:42:47;14.70;99.90
9389;DHT22;4734;52.778;6.798;2023-05-15T07:45:33;14.90;99.90
9389;DHT22;4734;52.778;6.798;2023-05-15T07:48:19;15.00;99.90
9389;DHT22;4734;52.778;6.798;2023-05-15T07:51:05;15.10;99.90
9389;DHT22;4734;52.778;6.798;2023-05-15T07:53:51;15.20;99.90
9389;DHT22;4734;52.778;6.798;2023-05-15T07:56:37;15.40;99.90
9389;DHT22;4734;52.778;6.798;2023-05-15T07:59:22;15.50;99.90
9389;DHT22;4734;52.778;6.798;2023-05-15T08:02:08;15.70;99.90
9389;DHT22;4734;52.778;6.798;2023-05-15T08:04:54;15.80;99.90
9389;DHT22;4734;52.778;6.798;2023-05-15T08:07:40;15.90;99.90
9389;DHT22;4734;52.778;6.798;2023-05-15T08:10:26;16.20;99.90
9389;DHT22;4734;52.778;6.798;2023-05-15T08:13:12;16.20;99.90
9389;DHT22;4734;52.778;6.798;2023-05-15T08:15:57;16.40;99.90
9389;DHT22;4734;52.778;6.798;2023-05-15T08:18:43;16.50;99.90
9389;DHT22;4734;52.778;6.798;2023-05-15T08:21:28;16.70;99.90
9389;DHT22;4734;52.778;6.798;2023-05-15T08:24:15;16.80;99.90
9389;DHT22;4734;52.778;6.798;2023-05-15T08:27:01;17.00;99.90
9389;DHT22;4734;52.778;6.798;2023-05-15T08:29:46;17.10;99.90
9389;DHT22;4734;52.778;6.798;2023-05-15T08:32:32;17.30;99.90
9389;DHT22;4734;52.778;6.798;2023-05-15T08:35:18;17.40;99.90
9389;DHT22;4734;52.778;6.798;2023-05-15T08:38:03;17.60;99.90
9389;DHT22;4734;52.778;6.798;2023-05-15T08:40:52;17.80;99.90
9389;DHT22;4734;52.778;6.798;2023-05-15T08:43:39;17.90;99.90
9389;DHT22;4734;52.778;6.798;2023-05-15T08:46:26;18.10;99.90
9389;DHT22;4734;52.778;6.798;2023-05-15T08:49:15;18.20;99.90
9389;DHT22;4734;52.778;6.798;2023-05-15T08:52:04;18.40;99.90
9389;DHT22;4734;52.778;6.798;2023-05-15T08:54:50;18.50;99.90
9389;DHT22;4734;52.778;6.798;2023-05-15T08:57:37;18.70;99.90
9389;DHT22;4734;52.778;6.798;2023-05-15T09:00:23;18.80;99.90
9389;DHT22;4734;52.778;6.798;2023-05-15T09:03:13;19.00;99.90
9389;DHT22;4734;52.778;6.798;2023-05-15T09:05:59;19.20;99.90
9389;DHT22;4734;52.778;6.798;2023-05-15T09:08:45;19.40;99.90
9389;DHT22;4734;52.778;6.798;2023-05-15T09:11:32;19.60;99.90
9389;DHT22;4734;52.778;6.798;2023-05-15T09:14:19;19.80;99.90
9389;DHT22;4734;52.778;6.798;2023-05-15T09:17:05;20.00;99.90
9389;DHT22;4734;52.778;6.798;2023-05-15T09:19:50;20.30;99.90
9389;DHT22;4734;52.778;6.798;2023-05-15T09:22:36;20.40;99.90
9389;DHT22;4734;52.778;6.798;2023-05-15T09:25:35;20.60;99.90
9389;DHT22;4734;52.778;6.798;2023-05-15T09:28:27;20.80;99.90
9389;DHT22;4734;52.778;6.798;2023-05-15T09:31:18;20.90;99.90
9389;DHT22;4734;52.778;6.798;2023-05-15T09:34:03;21.10;99.90
9389;DHT22;4734;52.778;6.798;2023-05-15T09:36:49;21.20;99.90
9389;DHT22;4734;52.778;6.798;2023-05-15T09:39:40;21.40;99.90
9389;DHT22;4734;52.778;6.798;2023-05-15T09:42:26;21.60;99.90
9389;DHT22;4734;52.778;6.798;2023-05-15T09:45:16;21.80;99.90
9389;DHT22;4734;52.778;6.798;2023-05-15T09:48:06;21.90;99.90
9389;DHT22;4734;52.778;6.798;2023-05-15T09:50:51;22.10;99.90
9389;DHT22;4734;52.778;6.798;2023-05-15T09:53:37;22.20;99.90
9389;DHT22;4734;52.778;6.798;2023-05-15T09:56:23;22.30;99.90
9389;DHT22;4734;52.778;6.798;2023-05-15T09:59:12;22.50;99.90
9389;DHT22;4734;52.778;6.798;2023-05-15T10:01:58;22.50;99.90
9389;DHT22;4734;52.778;6.798;2023-05-15T10:04:53;22.60;99.90
9389;DHT22;4734;52.778;6.798;2023-05-15T10:07:38;22.80;99.90
9389;DHT22;4734;52.778;6.798;2023-05-15T10:10:25;22.90;99.90
9389;DHT22;4734;52.778;6.798;2023-05-15T10:13:11;23.20;99.90
9389;DHT22;4734;52.778;6.798;2023-05-15T10:15:56;23.30;99.90
9389;DHT22;4734;52.778;6.798;2023-05-15T10:18:43;23.50;99.90
9389;DHT22;4734;52.778;6.798;2023-05-15T10:21:33;23.60;99.90
9389;DHT22;4734;52.778;6.798;2023-05-15T10:24:19;23.70;99.10
9389;DHT22;4734;52.778;6.798;2023-05-15T10:27:05;23.80;97.60
9389;DHT22;4734;52.778;6.798;2023-05-15T10:29:53;23.80;97.30
9389;DHT22;4734;52.778;6.798;2023-05-15T10:32:41;23.90;97.30
9389;DHT22;4734;52.778;6.798;2023-05-15T10:35:28;24.00;99.00
9389;DHT22;4734;52.778;6.798;2023-05-15T10:38:16;24.20;97.70
9389;DHT22;4734;52.778;6.798;2023-05-15T10:41:03;24.30;99.30
9389;DHT22;4734;52.778;6.798;2023-05-15T10:43:51;24.50;98.40
9389;DHT22;4734;52.778;6.798;2023-05-15T10:46:37;24.60;99.60
9389;DHT22;4734;52.778;6.798;2023-05-15T10:49:23;24.70;99.20
9389;DHT22;4734;52.778;6.798;2023-05-15T10:52:08;24.90;99.80
9389;DHT22;4734;52.778;6.798;2023-05-15T10:54:55;25.00;98.40
9389;DHT22;4734;52.778;6.798;2023-05-15T10:57:42;25.00;96.90
9389;DHT22;4734;52.778;6.798;2023-05-15T11:00:29;25.00;98.30
9389;DHT22;4734;52.778;6.798;2023-05-15T11:03:35;25.10;95.60
9389;DHT22;4734;52.778;6.798;2023-05-15T11:06:27;25.20;96.40
9389;DHT22;4734;52.778;6.798;2023-05-15T11:09:35;25.20;95.80
9389;DHT22;4734;52.778;6.798;2023-05-15T11:12:22;25.30;96.40
9389;DHT22;4734;52.778;6.798;2023-05-15T11:15:18;25.40;94.80
9389;DHT22;4734;52.778;6.798;2023-05-15T11:18:06;25.30;92.90
9389;DHT22;4734;52.778;6.798;2023-05-15T11:21:07;25.30;94.50
9389;DHT22;4734;52.778;6.798;2023-05-15T11:24:02;25.40;93.20
9389;DHT22;4734;52.778;6.798;2023-05-15T11:26:51;25.50;94.00
9389;DHT22;4734;52.778;6.798;2023-05-15T11:30:08;25.60;97.30
9389;DHT22;4734;52.778;6.798;2023-05-15T11:32:55;25.70;97.10
9389;DHT22;4734;52.778;6.798;2023-05-15T11:35:43;25.80;94.60
9389;DHT22;4734;52.778;6.798;2023-05-15T11:38:36;25.80;94.10
9389;DHT22;4734;52.778;6.798;2023-05-15T11:41:30;25.90;96.00
9389;DHT22;4734;52.778;6.798;2023-05-15T11:44:19;26.00;94.00
9389;DHT22;4734;52.778;6.798;2023-05-15T11:47:09;26.00;97.00
9389;DHT22;4734;52.778;6.798;2023-05-15T11:49:55;26.00;95.70
9389;DHT22;4734;52.778;6.798;2023-05-15T11:52:41;25.80;94.00
9389;DHT22;4734;52.778;6.798;2023-05-15T11:55:28;25.70;93.80
9389;DHT22;4734;52.778;6.798;2023-05-15T11:58:16;25.80;97.00
9389;DHT22;4734;52.778;6.798;2023-05-15T12:01:02;25.70;95.20
9389;DHT22;4734;52.778;6.798;2023-05-15T12:03:50;25.70;92.80
9389;DHT22;4734;52.778;6.798;2023-05-15T12:06:37;25.60;95.60
9389;DHT22;4734;52.778;6.798;2023-05-15T12:09:22;25.60;93.80
9389;DHT22;4734;52.778;6.798;2023-05-15T12:12:12;25.60;94.90
9389;DHT22;4734;52.778;6.798;2023-05-15T12:14:59;25.50;94.60
9389;DHT22;4734;52.778;6.798;2023-05-15T12:17:44;25.50;93.30
9389;DHT22;4734;52.778;6.798;2023-05-15T12:20:32;25.40;93.80
9389;DHT22;4734;52.778;6.798;2023-05-15T12:23:20;25.30;92.90
9389;DHT22;4734;52.778;6.798;2023-05-15T12:26:06;25.30;92.40
9389;DHT22;4734;52.778;6.798;2023-05-15T12:28:52;25.10;90.80
9389;DHT22;4734;52.778;6.798;2023-05-15T12:31:38;25.00;93.00
9389;DHT22;4734;52.778;6.798;2023-05-15T12:34:25;25.00;92.80
9389;DHT22;4734;52.778;6.798;2023-05-15T12:37:12;24.90;91.90
9389;DHT22;4734;52.778;6.798;2023-05-15T12:39:59;24.90;93.60
9389;DHT22;4734;52.778;6.798;2023-05-15T12:42:45;24.80;93.00
9389;DHT22;4734;52.778;6.798;2023-05-15T12:45:37;24.80;92.60
9389;DHT22;4734;52.778;6.798;2023-05-15T12:48:28;24.70;93.40
9389;DHT22;4734;52.778;6.798;2023-05-15T12:51:15;24.70;91.70
9389;DHT22;4734;52.778;6.798;2023-05-15T12:54:03;24.80;93.50
9389;DHT22;4734;52.778;6.798;2023-05-15T12:56:49;24.80;90.00
9389;DHT22;4734;52.778;6.798;2023-05-15T12:59:34;24.70;86.10
9389;DHT22;4734;52.778;6.798;2023-05-15T13:02:20;24.50;85.90
9389;DHT22;4734;52.778;6.798;2023-05-15T13:05:07;24.40;84.40
9389;DHT22;4734;52.778;6.798;2023-05-15T13:07:53;24.20;84.50
9389;DHT22;4734;52.778;6.798;2023-05-15T13:10:40;24.10;84.00
9389;DHT22;4734;52.778;6.798;2023-05-15T13:13:40;24.10;84.30
9389;DHT22;4734;52.778;6.798;2023-05-15T13:16:27;24.20;83.60
9389;DHT22;4734;52.778;6.798;2023-05-15T13:19:12;24.10;83.40
9389;DHT22;4734;52.778;6.798;2023-05-15T13:21:59;24.30;86.60
9389;DHT22;4734;52.778;6.798;2023-05-15T13:24:44;24.30;86.30
9389;DHT22;4734;52.778;6.798;2023-05-15T13:27:31;24.40;87.20
9389;DHT22;4734;52.778;6.798;2023-05-15T13:30:17;24.40;87.00
9389;DHT22;4734;52.778;6.798;2023-05-15T13:33:03;24.40;87.60
9389;DHT22;4734;52.778;6.798;2023-05-15T13:35:49;24.50;90.10
9389;DHT22;4734;52.778;6.798;2023-05-15T13:38:35;24.50;89.50
9389;DHT22;4734;52.778;6.798;2023-05-15T13:41:20;24.50;88.20
9389;DHT22;4734;52.778;6.798;2023-05-15T13:44:07;24.60;89.30
9389;DHT22;4734;52.778;6.798;2023-05-15T13:46:53;24.60;88.50
9389;DHT22;4734;52.778;6.798;2023-05-15T13:49:38;24.70;88.30
9389;DHT22;4734;52.778;6.798;2023-05-15T13:52:24;24.70;87.80
9389;DHT22;4734;52.778;6.798;2023-05-15T13:55:10;24.80;87.60
9389;DHT22;4734;52.778;6.798;2023-05-15T13:57:55;24.90;86.60
9389;DHT22;4734;52.778;6.798;2023-05-15T14:00:43;25.00;85.20
9389;DHT22;4734;52.778;6.798;2023-05-15T14:03:28;25.00;85.60
9389;DHT22;4734;52.778;6.798;2023-05-15T14:06:14;25.10;85.40
9389;DHT22;4734;52.778;6.798;2023-05-15T14:08:59;25.10;85.40
9389;DHT22;4734;52.778;6.798;2023-05-15T14:11:45;25.30;86.00
9389;DHT22;4734;52.778;6.798;2023-05-15T14:14:30;25.40;84.50
9389;DHT22;4734;52.778;6.798;2023-05-15T14:17:18;25.60;84.40
9389;DHT22;4734;52.778;6.798;2023-05-15T14:20:04;25.60;83.90
9389;DHT22;4734;52.778;6.798;2023-05-15T14:22:50;25.60;82.60
9389;DHT22;4734;52.778;6.798;2023-05-15T14:25:35;25.50;82.50
9389;DHT22;4734;52.778;6.798;2023-05-15T14:28:21;25.50;83.30
9389;DHT22;4734;52.778;6.798;2023-05-15T14:31:07;25.50;82.80
9389;DHT22;4734;52.778;6.798;2023-05-15T14:33:54;25.50;83.10
9389;DHT22;4734;52.778;6.798;2023-05-15T14:36:39;25.40;83.80
9389;DHT22;4734;52.778;6.798;2023-05-15T14:39:25;25.40;84.50
9389;DHT22;4734;52.778;6.798;2023-05-15T14:42:12;25.30;84.70
9389;DHT22;4734;52.778;6.798;2023-05-15T14:45:00;25.30;84.30
9389;DHT22;4734;52.778;6.798;2023-05-15T14:47:45;25.20;84.70
9389;DHT22;4734;52.778;6.798;2023-05-15T14:50:32;25.00;85.70
9389;DHT22;4734;52.778;6.798;2023-05-15T14:53:17;25.00;85.50
9389;DHT22;4734;52.778;6.798;2023-05-15T14:56:03;24.90;85.60
9389;DHT22;4734;52.778;6.798;2023-05-15T14:58:49;24.80;85.50
9389;DHT22;4734;52.778;6.798;2023-05-15T15:01:36;24.70;84.90
9389;DHT22;4734;52.778;6.798;2023-05-15T15:04:22;24.70;84.90
9389;DHT22;4734;52.778;6.798;2023-05-15T15:07:11;24.60;84.90
9389;DHT22;4734;52.778;6.798;2023-05-15T15:09:56;24.50;84.60
9389;DHT22;4734;52.778;6.798;2023-05-15T15:12:43;24.40;84.70
9389;DHT22;4734;52.778;6.798;2023-05-15T15:15:29;24.30;83.90
9389;DHT22;4734;52.778;6.798;2023-05-15T15:18:15;24.20;84.60
9389;DHT22;4734;52.778;6.798;2023-05-15T15:21:01;24.10;84.70
9389;DHT22;4734;52.778;6.798;2023-05-15T15:23:48;24.00;85.30
9389;DHT22;4734;52.778;6.798;2023-05-15T15:26:34;24.00;85.60
9389;DHT22;4734;52.778;6.798;2023-05-15T15:29:20;23.90;84.50
9389;DHT22;4734;52.778;6.798;2023-05-15T15:32:06;23.80;84.90
9389;DHT22;4734;52.778;6.798;2023-05-15T15:34:52;23.70;84.90
9389;DHT22;4734;52.778;6.798;2023-05-15T15:37:37;23.60;85.30
9389;DHT22;4734;52.778;6.798;2023-05-15T15:40:24;23.50;85.40
9389;DHT22;4734;52.778;6.798;2023-05-15T15:43:10;23.40;85.70
9389;DHT22;4734;52.778;6.798;2023-05-15T15:45:55;23.30;85.70
9389;DHT22;4734;52.778;6.798;2023-05-15T15:48:41;23.20;86.10
9389;DHT22;4734;52.778;6.798;2023-05-15T15:51:28;23.10;87.10
9389;DHT22;4734;52.778;6.798;2023-05-15T15:54:14;23.00;87.10
9389;DHT22;4734;52.778;6.798;2023-05-15T15:57:02;22.90;87.20
9389;DHT22;4734;52.778;6.798;2023-05-15T15:59:48;22.80;87.50
9389;DHT22;4734;52.778;6.798;2023-05-15T16:02:34;22.60;87.80
9389;DHT22;4734;52.778;6.798;2023-05-15T16:05:20;22.50;88.40
9389;DHT22;4734;52.778;6.798;2023-05-15T16:08:05;22.40;88.20
9389;DHT22;4734;52.778;6.798;2023-05-15T16:10:52;22.30;88.40
9389;DHT22;4734;52.778;6.798;2023-05-15T16:13:39;22.30;88.40
9389;DHT22;4734;52.778;6.798;2023-05-15T16:16:25;22.20;88.50
9389;DHT22;4734;52.778;6.798;2023-05-15T16:19:11;22.10;88.30
9389;DHT22;4734;52.778;6.798;2023-05-15T16:21:57;21.90;88.60
9389;DHT22;4734;52.778;6.798;2023-05-15T16:24:42;21.90;88.80
9389;DHT22;4734;52.778;6.798;2023-05-15T16:27:28;21.70;88.80
9389;DHT22;4734;52.778;6.798;2023-05-15T16:30:15;21.60;89.30
9389;DHT22;4734;52.778;6.798;2023-05-15T16:33:01;21.50;89.40
9389;DHT22;4734;52.778;6.798;2023-05-15T16:35:47;21.50;90.10
9389;DHT22;4734;52.778;6.798;2023-05-15T16:38:32;21.50;90.00
9389;DHT22;4734;52.778;6.798;2023-05-15T16:41:18;21.50;90.30
9389;DHT22;4734;52.778;6.798;2023-05-15T16:44:04;21.50;90.50
9389;DHT22;4734;52.778;6.798;2023-05-15T16:46:54;21.50;90.60
9389;DHT22;4734;52.778;6.798;2023-05-15T16:49:40;21.40;90.70
9389;DHT22;4734;52.778;6.798;2023-05-15T16:52:26;21.40;90.90
9389;DHT22;4734;52.778;6.798;2023-05-15T16:55:13;21.40;91.00
9389;DHT22;4734;52.778;6.798;2023-05-15T16:57:58;21.30;91.10
9389;DHT22;4734;52.778;6.798;2023-05-15T17:00:44;21.30;91.10
9389;DHT22;4734;52.778;6.798;2023-05-15T17:03:31;21.20;91.30
9389;DHT22;4734;52.778;6.798;2023-05-15T17:06:17;21.20;91.40
9389;DHT22;4734;52.778;6.798;2023-05-15T17:09:03;21.10;91.50
9389;DHT22;4734;52.778;6.798;2023-05-15T17:11:48;21.10;91.60
9389;DHT22;4734;52.778;6.798;2023-05-15T17:14:34;21.00;91.70
9389;DHT22;4734;52.778;6.798;2023-05-15T17:17:19;20.90;91.70
9389;DHT22;4734;52.778;6.798;2023-05-15T17:20:09;20.90;91.80
9389;DHT22;4734;52.778;6.798;2023-05-15T17:22:54;20.80;91.90
9389;DHT22;4734;52.778;6.798;2023-05-15T17:25:40;20.70;92.00
9389;DHT22;4734;52.778;6.798;2023-05-15T17:28:25;20.70;92.00
9389;DHT22;4734;52.778;6.798;2023-05-15T17:31:11;20.60;92.10
9389;DHT22;4734;52.778;6.798;2023-05-15T17:33:57;20.50;92.20
9389;DHT22;4734;52.778;6.798;2023-05-15T17:36:45;20.50;92.30
9389;DHT22;4734;52.778;6.798;2023-05-15T17:39:30;20.40;92.40
9389;DHT22;4734;52.778;6.798;2023-05-15T17:42:16;20.30;92.40
9389;DHT22;4734;52.778;6.798;2023-05-15T17:45:01;20.30;92.80
9389;DHT22;4734;52.778;6.798;2023-05-15T17:47:47;20.20;92.50
9389;DHT22;4734;52.778;6.798;2023-05-15T17:50:34;20.10;92.40
9389;DHT22;4734;52.778;6.798;2023-05-15T17:53:22;20.10;92.50
9389;DHT22;4734;52.778;6.798;2023-05-15T17:56:08;20.00;92.60
9389;DHT22;4734;52.778;6.798;2023-05-15T17:58:54;19.90;92.70
9389;DHT22;4734;52.778;6.798;2023-05-15T18:01:40;19.80;92.70
9389;DHT22;4734;52.778;6.798;2023-05-15T18:04:25;19.80;92.80
9389;DHT22;4734;52.778;6.798;2023-05-15T18:07:11;19.70;92.90
9389;DHT22;4734;52.778;6.798;2023-05-15T18:09:59;19.60;92.90